sensor_id;sensor_type;location;lat;lon;timestamp;pressure;altitude;pressure_sealevel;temperature;humidity
7168;BME280;3625;51.762;14.320;2022-07-23T00:01:33;100817.91;;;18.63;100.00
7168;BME280;3625;51.762;14.320;2022-07-23T00:04:02;100815.53;;;18.57;100.00
7168;BME280;3625;51.762;14.320;2022-07-23T00:06:31;100801.13;;;18.41;100.00
7168;BME280;3625;51.762;14.320;2022-07-23T00:08:59;100814.59;;;18.39;100.00
7168;BME280;3625;51.762;14.320;2022-07-23T00:11:29;100733.94;;;17.91;100.00
7168;BME280;3625;51.762;14.320;2022-07-23T00:13:58;100802.34;;;18.34;100.00
7168;BME280;3625;51.762;14.320;2022-07-23T00:16:28;100806.69;;;18.36;100.00
7168;BME280;3625;51.762;14.320;2022-07-23T00:18:57;100759.31;;;18.20;100.00
7168;BME280;3625;51.762;14.320;2022-07-23T00:21:29;100786.56;;;18.46;100.00
7168;BME280;3625;51.762;14.320;2022-07-23T00:23:58;100780.78;;;18.37;100.00
7168;BME280;3625;51.762;14.320;2022-07-23T00:26:27;100802.00;;;18.41;100.00
7168;BME280;3625;51.762;14.320;2022-07-23T00:28:56;100802.34;;;18.34;100.00
7168;BME280;3625;51.762;14.320;2022-07-23T00:31:25;100811.63;;;18.27;100.00
7168;BME280;3625;51.762;14.320;2022-07-23T00:33:56;100803.97;;;18.19;100.00
7168;BME280;3625;51.762;14.320;2022-07-23T00:36:25;100804.53;;;18.26;100.00
7168;BME280;3625;51.762;14.320;2022-07-23T00:38:54;100802.66;;;18.28;100.00
7168;BME280;3625;51.762;14.320;2022-07-23T00:41:24;100773.56;;;18.01;100.00
7168;BME280;3625;51.762;14.320;2022-07-23T00:43:53;100822.72;;;18.19;100.00
7168;BME280;3625;51.762;14.320;2022-07-23T00:46:22;100800.34;;;18.01;100.00
7168;BME280;3625;51.762;14.320;2022-07-23T00:48:52;100814.31;;;18.08;100.00
7168;BME280;3625;51.762;14.320;2022-07-23T00:51:22;100813.69;;;18.03;100.00
7168;BME280;3625;51.762;14.320;2022-07-23T00:53:51;100813.91;;;17.98;100.00
7168;BME280;3625;51.762;14.320;2022-07-23T00:56:21;100819.38;;;17.95;100.00
7168;BME280;3625;51.762;14.320;2022-07-23T00:58:50;100746.03;;;17.42;100.00
7168;BME280;3625;51.762;14.320;2022-07-23T01:01:20;100828.72;;;17.87;100.00
7168;BME280;3625;51.762;14.320;2022-07-23T01:03:49;100816.28;;;17.86;100.00
7168;BME280;3625;51.762;14.320;2022-07-23T01:06:18;100813.81;;;17.81;100.00
7168;BME280;3625;51.762;14.320;2022-07-23T01:08:48;100779.88;;;17.63;100.00
7168;BME280;3625;51.762;14.320;2022-07-23T01:11:19;100808.97;;;17.70;100.00
7168;BME280;3625;51.762;14.320;2022-07-23T01:13:48;100804.84;;;17.63;100.00
7168;BME280;3625;51.762;14.320;2022-07-23T01:16:17;100789.66;;;17.64;100.00
7168;BME280;3625;51.762;14.320;2022-07-23T01:18:46;100791.22;;;17.68;100.00
7168;BME280;3625;51.762;14.320;2022-07-23T01:21:18;100703.91;;;17.08;100.00
7168;BME280;3625;51.762;14.320;2022-07-23T01:23:49;100793.66;;;17.54;100.00
7168;BME280;3625;51.762;14.320;2022-07-23T01:26:19;100797.84;;;17.59;100.00
7168;BME280;3625;51.762;14.320;2022-07-23T01:28:48;100791.44;;;17.63;100.00
7168;BME280;3625;51.762;14.320;2022-07-23T01:31:17;100791.22;;;17.68;100.00
7168;BME280;3625;51.762;14.320;2022-07-23T01:33:47;100792.09;;;17.68;100.00
7168;BME280;3625;51.762;14.320;2022-07-23T01:36:16;100777.47;;;17.76;100.00
7168;BME280;3625;51.762;14.320;2022-07-23T01:38:45;100774.09;;;17.72;100.00
7168;BME280;3625;51.762;14.320;2022-07-23T01:41:16;100769.38;;;17.77;100.00
7168;BME280;3625;51.762;14.320;2022-07-23T01:43:46;100767.44;;;17.81;100.00
7168;BME280;3625;51.762;14.320;2022-07-23T01:46:15;100764.03;;;17.77;100.00
7168;BME280;3625;51.762;14.320;2022-07-23T01:48:47;100774.00;;;17.73;100.00
7168;BME280;3625;51.762;14.320;2022-07-23T01:51:49;100762.59;;;17.70;100.00
7168;BME280;3625;51.762;14.320;2022-07-23T01:54:38;100761.16;;;17.63;100.00
7168;BME280;3625;51.762;14.320;2022-07-23T01:57:11;100751.03;;;17.69;100.00
7168;BME280;3625;51.762;14.320;2022-07-23T01:59:40;100404.16;;;15.64;100.00
7168;BME280;3625;51.762;14.320;2022-07-23T02:02:09;100717.81;;;17.55;100.00
7168;BME280;3625;51.762;14.320;2022-07-23T02:04:39;100740.38;;;17.68;100.00
7168;BME280;3625;51.762;14.320;2022-07-23T02:07:07;100660.94;;;17.31;100.00
7168;BME280;3625;51.762;14.320;2022-07-23T02:09:36;100727.31;;;17.81;100.00
7168;BME280;3625;51.762;14.320;2022-07-23T02:12:05;100728.31;;;17.78;100.00
7168;BME280;3625;51.762;14.320;2022-07-23T02:14:35;100719.47;;;17.76;100.00
7168;BME280;3625;51.762;14.320;2022-07-23T02:17:05;100715.06;;;17.75;100.00
7168;BME280;3625;51.762;14.320;2022-07-23T02:19:35;100702.47;;;17.77;100.00
7168;BME280;3625;51.762;14.320;2022-07-23T02:22:04;100702.47;;;17.77;100.00
7168;BME280;3625;51.762;14.320;2022-07-23T02:24:33;100705.41;;;17.73;100.00
7168;BME280;3625;51.762;14.320;2022-07-23T02:27:02;100722.38;;;17.71;100.00
7168;BME280;3625;51.762;14.320;2022-07-23T02:29:32;100723.97;;;17.76;100.00
7168;BME280;3625;51.762;14.320;2022-07-23T02:32:03;100697.63;;;17.66;100.00
7168;BME280;3625;51.762;14.320;2022-07-23T02:34:34;100705.44;;;17.90;100.00
7168;BME280;3625;51.762;14.320;2022-07-23T02:37:03;100702.66;;;17.91;100.00
7168;BME280;3625;51.762;14.320;2022-07-23T02:39:32;100708.81;;;17.93;100.00
7168;BME280;3625;51.762;14.320;2022-07-23T02:42:01;100705.34;;;17.91;100.00
7168;BME280;3625;51.762;14.320;2022-07-23T02:44:32;100691.03;;;17.92;100.00
7168;BME280;3625;51.762;14.320;2022-07-23T02:47:03;100687.66;;;17.89;100.00
7168;BME280;3625;51.762;14.320;2022-07-23T02:49:34;100699.06;;;17.92;100.00
7168;BME280;3625;51.762;14.320;2022-07-23T02:52:05;100686.19;;;17.82;100.00
7168;BME280;3625;51.762;14.320;2022-07-23T02:54:34;100696.81;;;17.83;100.00
7168;BME280;3625;51.762;14.320;2022-07-23T02:57:03;100698.00;;;17.78;100.00
7168;BME280;3625;51.762;14.320;2022-07-23T02:59:32;100468.81;;;16.48;100.00
7168;BME280;3625;51.762;14.320;2022-07-23T03:02:02;100670.59;;;17.73;100.00
7168;BME280;3625;51.762;14.320;2022-07-23T03:04:31;100704.13;;;17.98;100.00
7168;BME280;3625;51.762;14.320;2022-07-23T03:07:01;100697.47;;;18.07;100.00
7168;BME280;3625;51.762;14.320;2022-07-23T03:09:30;100688.88;;;18.18;100.00
7168;BME280;3625;51.762;14.320;2022-07-23T03:11:58;100677.00;;;18.23;100.00
7168;BME280;3625;51.762;14.320;2022-07-23T03:14:27;100682.59;;;18.36;100.00
7168;BME280;3625;51.762;14.320;2022-07-23T03:16:56;100684.19;;;18.40;100.00
7168;BME280;3625;51.762;14.320;2022-07-23T03:19:28;100679.69;;;18.40;100.00
7168;BME280;3625;51.762;14.320;2022-07-23T03:21:57;100679.53;;;18.43;100.00
7168;BME280;3625;51.762;14.320;2022-07-23T03:24:26;100661.88;;;18.39;100.00
7168;BME280;3625;51.762;14.320;2022-07-23T03:27:16;100683.53;;;18.52;100.00
7168;BME280;3625;51.762;14.320;2022-07-23T03:29:45;100695.94;;;18.55;100.00
7168;BME280;3625;51.762;14.320;2022-07-23T03:32:14;100692.09;;;18.60;100.00
7168;BME280;3625;51.762;14.320;2022-07-23T03:34:45;100689.31;;;18.62;100.00
7168;BME280;3625;51.762;14.320;2022-07-23T03:37:14;100654.41;;;18.46;100.00
7168;BME280;3625;51.762;14.320;2022-07-23T03:39:43;100609.00;;;18.26;100.00
7168;BME280;3625;51.762;14.320;2022-07-23T03:42:12;100684.03;;;18.77;100.00
7168;BME280;3625;51.762;14.320;2022-07-23T03:44:41;100678.53;;;18.80;100.00
7168;BME280;3625;51.762;14.320;2022-07-23T03:47:10;100678.28;;;18.85;100.00
7168;BME280;3625;51.762;14.320;2022-07-23T03:49:39;100681.13;;;18.82;100.00
7168;BME280;3625;51.762;14.320;2022-07-23T03:52:10;100669.63;;;18.80;100.00
7168;BME280;3625;51.762;14.320;2022-07-23T03:54:38;100664.16;;;18.81;100.00
7168;BME280;3625;51.762;14.320;2022-07-23T03:57:07;100662.09;;;18.87;100.00
7168;BME280;3625;51.762;14.320;2022-07-23T03:59:36;100660.94;;;18.92;100.00
7168;BME280;3625;51.762;14.320;2022-07-23T04:02:05;100652.47;;;19.00;100.00
7168;BME280;3625;51.762;14.320;2022-07-23T04:04:34;100653.25;;;19.02;100.00
7168;BME280;3625;51.762;14.320;2022-07-23T04:07:02;100641.47;;;19.04;100.00
7168;BME280;3625;51.762;14.320;2022-07-23T04:09:33;100669.25;;;19.36;100.00
7168;BME280;3625;51.762;14.320;2022-07-23T04:12:03;100665.78;;;19.34;98.97
7168;BME280;3625;51.762;14.320;2022-07-23T04:14:32;100675.78;;;19.48;99.12
7168;BME280;3625;51.762;14.320;2022-07-23T04:17:01;100687.59;;;19.44;98.89
7168;BME280;3625;51.762;14.320;2022-07-23T04:19:31;100704.56;;;19.44;98.77
7168;BME280;3625;51.762;14.320;2022-07-23T04:22:04;100685.25;;;19.38;98.79
7168;BME280;3625;51.762;14.320;2022-07-23T04:24:37;100662.88;;;19.21;98.84
7168;BME280;3625;51.762;14.320;2022-07-23T04:27:07;100659.38;;;19.04;99.96
7168;BME280;3625;51.762;14.320;2022-07-23T04:29:37;100663.88;;;19.03;100.00
7168;BME280;3625;51.762;14.320;2022-07-23T04:32:06;100666.47;;;19.05;100.00
7168;BME280;3625;51.762;14.320;2022-07-23T04:34:35;100672.47;;;19.10;100.00
7168;BME280;3625;51.762;14.320;2022-07-23T04:37:05;100691.94;;;19.13;100.00
7168;BME280;3625;51.762;14.320;2022-07-23T04:39:37;100691.63;;;19.19;100.00
7168;BME280;3625;51.762;14.320;2022-07-23T04:42:06;100688.63;;;19.26;100.00
7168;BME280;3625;51.762;14.320;2022-07-23T04:44:35;100697.94;;;19.18;100.00
7168;BME280;3625;51.762;14.320;2022-07-23T04:47:06;100709.53;;;19.19;100.00
7168;BME280;3625;51.762;14.320;2022-07-23T04:49:35;100719.59;;;19.31;100.00
7168;BME280;3625;51.762;14.320;2022-07-23T04:52:06;100715.94;;;19.16;100.00
7168;BME280;3625;51.762;14.320;2022-07-23T04:54:37;100701.06;;;18.94;100.00
7168;BME280;3625;51.762;14.320;2022-07-23T04:57:05;100694.38;;;18.85;100.00
7168;BME280;3625;51.762;14.320;2022-07-23T04:59:34;100681.53;;;18.74;100.00
7168;BME280;3625;51.762;14.320;2022-07-23T05:02:04;100676.78;;;18.79;100.00
7168;BME280;3625;51.762;14.320;2022-07-23T05:04:33;100690.91;;;18.83;100.00
7168;BME280;3625;51.762;14.320;2022-07-23T05:07:03;100697.75;;;18.89;100.00
7168;BME280;3625;51.762;14.320;2022-07-23T05:09:33;100696.47;;;18.96;100.00
7168;BME280;3625;51.762;14.320;2022-07-23T05:12:04;100683.72;;;19.01;100.00
7168;BME280;3625;51.762;14.320;2022-07-23T05:14:34;100680.38;;;18.96;100.00
7168;BME280;3625;51.762;14.320;2022-07-23T05:17:03;100676.84;;;19.28;100.00
7168;BME280;3625;51.762;14.320;2022-07-23T05:19:32;100689.03;;;19.67;100.00
7168;BME280;3625;51.762;14.320;2022-07-23T05:22:01;100696.50;;;19.62;99.08
7168;BME280;3625;51.762;14.320;2022-07-23T05:24:31;100712.41;;;19.65;98.13
7168;BME280;3625;51.762;14.320;2022-07-23T05:27:03;100703.41;;;19.50;99.08
7168;BME280;3625;51.762;14.320;2022-07-23T05:29:32;100680.50;;;19.43;100.00
7168;BME280;3625;51.762;14.320;2022-07-23T05:32:01;100691.53;;;19.21;100.00
7168;BME280;3625;51.762;14.320;2022-07-23T05:34:32;100695.44;;;19.31;100.00
7168;BME280;3625;51.762;14.320;2022-07-23T05:37:01;100693.47;;;19.35;100.00
7168;BME280;3625;51.762;14.320;2022-07-23T05:39:29;100674.56;;;19.20;100.00
7168;BME280;3625;51.762;14.320;2022-07-23T05:41:59;100689.13;;;19.32;100.00
7168;BME280;3625;51.762;14.320;2022-07-23T05:44:29;100667.84;;;18.96;100.00
7168;BME280;3625;51.762;14.320;2022-07-23T05:47:02;100700.75;;;19.00;100.00
7168;BME280;3625;51.762;14.320;2022-07-23T05:49:30;100706.72;;;19.05;100.00
7168;BME280;3625;51.762;14.320;2022-07-23T05:52:32;100699.41;;;18.91;100.00
7168;BME280;3625;51.762;14.320;2022-07-23T05:55:26;100700.66;;;19.01;100.00
7168;BME280;3625;51.762;14.320;2022-07-23T05:57:56;100675.44;;;18.88;100.00
7168;BME280;3625;51.762;14.320;2022-07-23T06:00:28;100700.94;;;19.12;100.00
7168;BME280;3625;51.762;14.320;2022-07-23T06:02:58;100707.91;;;19.32;100.00
7168;BME280;3625;51.762;14.320;2022-07-23T06:05:29;100704.19;;;19.52;100.00
7168;BME280;3625;51.762;14.320;2022-07-23T06:07:58;100676.94;;;19.42;100.00
7168;BME280;3625;51.762;14.320;2022-07-23T06:10:28;100709.13;;;19.59;100.00
7168;BME280;3625;51.762;14.320;2022-07-23T06:12:57;100674.75;;;19.50;100.00
7168;BME280;3625;51.762;14.320;2022-07-23T06:15:31;100709.47;;;19.69;100.00
7168;BME280;3625;51.762;14.320;2022-07-23T06:18:00;100714.94;;;19.68;100.00
7168;BME280;3625;51.762;14.320;2022-07-23T06:20:29;100711.84;;;19.42;100.00
7168;BME280;3625;51.762;14.320;2022-07-23T06:22:58;100717.84;;;19.30;100.00
7168;BME280;3625;51.762;14.320;2022-07-23T06:25:28;100729.22;;;19.35;100.00
7168;BME280;3625;51.762;14.320;2022-07-23T06:27:57;100739.47;;;19.44;100.00
7168;BME280;3625;51.762;14.320;2022-07-23T06:30:27;100740.34;;;19.45;100.00
7168;BME280;3625;51.762;14.320;2022-07-23T06:32:57;100753.97;;;19.57;100.00
7168;BME280;3625;51.762;14.320;2022-07-23T06:35:26;100757.16;;;19.48;100.00
7168;BME280;3625;51.762;14.320;2022-07-23T06:37:55;100781.44;;;19.63;100.00
7168;BME280;3625;51.762;14.320;2022-07-23T06:40:24;100779.41;;;19.50;99.85
7168;BME280;3625;51.762;14.320;2022-07-23T06:42:53;100788.19;;;19.37;100.00
7168;BME280;3625;51.762;14.320;2022-07-23T06:45:23;100792.41;;;19.41;100.00
7168;BME280;3625;51.762;14.320;2022-07-23T06:47:52;100797.09;;;19.54;98.82
7168;BME280;3625;51.762;14.320;2022-07-23T06:50:22;100764.66;;;19.25;99.75
7168;BME280;3625;51.762;14.320;2022-07-23T06:52:51;100687.16;;;19.03;99.31
7168;BME280;3625;51.762;14.320;2022-07-23T06:55:20;100771.34;;;19.50;98.80
7168;BME280;3625;51.762;14.320;2022-07-23T06:57:49;100777.53;;;19.52;99.13
7168;BME280;3625;51.762;14.320;2022-07-23T07:00:18;100774.50;;;19.58;98.39
7168;BME280;3625;51.762;14.320;2022-07-23T07:02:47;100752.66;;;19.49;98.13
7168;BME280;3625;51.762;14.320;2022-07-23T07:05:16;100767.91;;;19.64;98.14
7168;BME280;3625;51.762;14.320;2022-07-23T07:07:47;100769.78;;;19.79;97.52
7168;BME280;3625;51.762;14.320;2022-07-23T07:10:17;100761.72;;;19.95;95.30
7168;BME280;3625;51.762;14.320;2022-07-23T07:12:46;100769.53;;;20.47;92.41
7168;BME280;3625;51.762;14.320;2022-07-23T07:15:15;100760.19;;;20.68;89.13
7168;BME280;3625;51.762;14.320;2022-07-23T07:17:44;100778.44;;;20.93;87.38
7168;BME280;3625;51.762;14.320;2022-07-23T07:20:14;100772.63;;;20.85;88.27
7168;BME280;3625;51.762;14.320;2022-07-23T07:22:43;100761.53;;;20.91;89.12
7168;BME280;3625;51.762;14.320;2022-07-23T07:25:14;100762.25;;;20.49;89.36
7168;BME280;3625;51.762;14.320;2022-07-23T07:27:43;100758.78;;;20.47;90.43
7168;BME280;3625;51.762;14.320;2022-07-23T07:30:12;100711.34;;;20.30;90.27
7168;BME280;3625;51.762;14.320;2022-07-23T07:32:41;100747.94;;;20.78;89.52
7168;BME280;3625;51.762;14.320;2022-07-23T07:35:26;100757.56;;;20.82;88.51
7168;BME280;3625;51.762;14.320;2022-07-23T07:37:55;100750.13;;;21.16;87.87
7168;BME280;3625;51.762;14.320;2022-07-23T07:40:25;100769.03;;;21.44;86.01
7168;BME280;3625;51.762;14.320;2022-07-23T07:43:00;100760.75;;;21.33;85.22
7168;BME280;3625;51.762;14.320;2022-07-23T07:45:31;100755.19;;;21.36;84.32
7168;BME280;3625;51.762;14.320;2022-07-23T07:48:00;100756.25;;;21.33;83.98
7168;BME280;3625;51.762;14.320;2022-07-23T07:50:29;100751.06;;;21.59;82.48
7168;BME280;3625;51.762;14.320;2022-07-23T07:52:58;100730.34;;;21.73;81.16
7168;BME280;3625;51.762;14.320;2022-07-23T07:55:29;100697.00;;;21.62;79.42
7168;BME280;3625;51.762;14.320;2022-07-23T07:57:59;100733.13;;;22.00;79.52
7168;BME280;3625;51.762;14.320;2022-07-23T08:00:29;100696.34;;;21.58;79.97
7168;BME280;3625;51.762;14.320;2022-07-23T08:02:59;100729.84;;;21.95;78.88
7168;BME280;3625;51.762;14.320;2022-07-23T08:05:30;100734.66;;;21.90;77.99
7168;BME280;3625;51.762;14.320;2022-07-23T08:07:59;100715.28;;;21.57;80.34
7168;BME280;3625;51.762;14.320;2022-07-23T08:10:30;100700.81;;;21.86;79.56
7168;BME280;3625;51.762;14.320;2022-07-23T08:13:00;100700.00;;;22.12;77.77
7168;BME280;3625;51.762;14.320;2022-07-23T08:15:30;100712.97;;;22.06;78.48
7168;BME280;3625;51.762;14.320;2022-07-23T08:18:00;100719.13;;;22.22;77.05
7168;BME280;3625;51.762;14.320;2022-07-23T08:20:29;100713.91;;;21.78;77.87
7168;BME280;3625;51.762;14.320;2022-07-23T08:23:02;100717.84;;;21.87;78.71
7168;BME280;3625;51.762;14.320;2022-07-23T08:25:34;100697.22;;;22.14;77.62
7168;BME280;3625;51.762;14.320;2022-07-23T08:28:06;100707.06;;;22.28;75.61
7168;BME280;3625;51.762;14.320;2022-07-23T08:30:37;100714.34;;;22.40;74.73
7168;BME280;3625;51.762;14.320;2022-07-23T08:33:09;100700.19;;;22.76;72.41
7168;BME280;3625;51.762;14.320;2022-07-23T08:36:00;100693.84;;;23.27;71.09
7168;BME280;3625;51.762;14.320;2022-07-23T08:38:31;100689.84;;;24.19;66.25
7168;BME280;3625;51.762;14.320;2022-07-23T08:41:03;100630.72;;;23.66;66.68
7168;BME280;3625;51.762;14.320;2022-07-23T08:43:33;100689.63;;;24.22;64.17
7168;BME280;3625;51.762;14.320;2022-07-23T08:46:04;100685.50;;;24.53;63.32
7168;BME280;3625;51.762;14.320;2022-07-23T08:48:35;100686.03;;;23.97;64.63
7168;BME280;3625;51.762;14.320;2022-07-23T08:51:07;100687.94;;;24.21;65.55
7168;BME280;3625;51.762;14.320;2022-07-23T08:53:38;100694.78;;;24.83;62.84
7168;BME280;3625;51.762;14.320;2022-07-23T08:56:09;100697.09;;;24.18;64.02
7168;BME280;3625;51.762;14.320;2022-07-23T08:58:38;100700.03;;;24.39;64.56
7168;BME280;3625;51.762;14.320;2022-07-23T09:01:07;100707.56;;;24.70;61.90
7168;BME280;3625;51.762;14.320;2022-07-23T09:03:37;100708.22;;;24.50;62.65
7168;BME280;3625;51.762;14.320;2022-07-23T09:06:07;100662.41;;;23.88;64.44
7168;BME280;3625;51.762;14.320;2022-07-23T09:08:38;100672.41;;;23.62;65.95
7168;BME280;3625;51.762;14.320;2022-07-23T09:11:10;100716.09;;;23.31;68.53
7168;BME280;3625;51.762;14.320;2022-07-23T09:13:41;100716.09;;;23.31;69.45
7168;BME280;3625;51.762;14.320;2022-07-23T09:16:14;100718.81;;;23.44;70.14
7168;BME280;3625;51.762;14.320;2022-07-23T09:18:46;100709.09;;;23.90;69.15
7168;BME280;3625;51.762;14.320;2022-07-23T09:21:23;100690.41;;;24.24;67.24
7168;BME280;3625;51.762;14.320;2022-07-23T09:23:56;100672.72;;;24.31;66.17
7168;BME280;3625;51.762;14.320;2022-07-23T09:26:35;100713.78;;;24.60;65.82
7168;BME280;3625;51.762;14.320;2022-07-23T09:29:17;100685.16;;;24.68;64.36
7168;BME280;3625;51.762;14.320;2022-07-23T09:31:49;100730.13;;;24.82;65.35
7168;BME280;3625;51.762;14.320;2022-07-23T09:34:22;100693.31;;;24.79;64.15
7168;BME280;3625;51.762;14.320;2022-07-23T09:36:53;100693.16;;;24.70;64.73
7168;BME280;3625;51.762;14.320;2022-07-23T09:39:27;100728.72;;;24.76;65.58
7168;BME280;3625;51.762;14.320;2022-07-23T09:42:12;100727.13;;;24.74;66.67
7168;BME280;3625;51.762;14.320;2022-07-23T09:44:43;100730.22;;;25.27;65.08
7168;BME280;3625;51.762;14.320;2022-07-23T09:47:12;100710.19;;;25.63;62.65
7168;BME280;3625;51.762;14.320;2022-07-23T09:49:59;100768.28;;;26.25;60.17
7168;BME280;3625;51.762;14.320;2022-07-23T09:52:29;100766.97;;;26.09;59.97
7168;BME280;3625;51.762;14.320;2022-07-23T09:55:05;100764.03;;;26.01;60.63
7168;BME280;3625;51.762;14.320;2022-07-23T09:57:35;100761.91;;;26.04;60.99
7168;BME280;3625;51.762;14.320;2022-07-23T10:00:09;100757.25;;;25.73;60.86
7168;BME280;3625;51.762;14.320;2022-07-23T10:02:40;100703.53;;;25.44;61.00
7168;BME280;3625;51.762;14.320;2022-07-23T10:05:30;100758.50;;;25.80;58.94
7168;BME280;3625;51.762;14.320;2022-07-23T10:08:19;100753.03;;;25.35;60.68
7168;BME280;3625;51.762;14.320;2022-07-23T10:11:09;100768.66;;;25.43;61.95
7168;BME280;3625;51.762;14.320;2022-07-23T10:13:44;100748.78;;;25.66;60.14
7168;BME280;3625;51.762;14.320;2022-07-23T10:16:22;100770.78;;;26.17;58.65
7168;BME280;3625;51.762;14.320;2022-07-23T10:18:54;100781.66;;;26.60;57.28
7168;BME280;3625;51.762;14.320;2022-07-23T10:21:34;100762.13;;;26.46;55.68
7168;BME280;3625;51.762;14.320;2022-07-23T10:24:17;100770.47;;;26.54;55.14
7168;BME280;3625;51.762;14.320;2022-07-23T10:27:02;100783.56;;;26.49;55.56
7168;BME280;3625;51.762;14.320;2022-07-23T10:29:46;100796.16;;;26.39;56.63
7168;BME280;3625;51.762;14.320;2022-07-23T10:32:30;100803.00;;;26.65;56.70
7168;BME280;3625;51.762;14.320;2022-07-23T10:35:19;100669.03;;;25.46;58.63
7168;BME280;3625;51.762;14.320;2022-07-23T10:38:02;100807.66;;;25.98;60.42
7168;BME280;3625;51.762;14.320;2022-07-23T10:40:36;100794.44;;;25.48;63.02
7168;BME280;3625;51.762;14.320;2022-07-23T10:43:15;100795.88;;;25.30;65.30
7168;BME280;3625;51.762;14.320;2022-07-23T10:45:50;100805.94;;;25.85;63.40
7168;BME280;3625;51.762;14.320;2022-07-23T10:48:21;100814.31;;;26.16;60.54
7168;BME280;3625;51.762;14.320;2022-07-23T10:51:08;100783.41;;;25.85;60.62
7168;BME280;3625;51.762;14.320;2022-07-23T10:53:58;100801.13;;;26.00;60.43
7168;BME280;3625;51.762;14.320;2022-07-23T10:57:04;100795.94;;;25.97;59.98
7168;BME280;3625;51.762;14.320;2022-07-23T11:00:14;100755.13;;;25.43;59.59
7168;BME280;3625;51.762;14.320;2022-07-23T11:02:48;100834.41;;;25.80;58.94
7168;BME280;3625;51.762;14.320;2022-07-23T11:05:20;100710.41;;;25.37;56.52
7168;BME280;3625;51.762;14.320;2022-07-23T11:08:16;100836.34;;;25.78;57.00
7168;BME280;3625;51.762;14.320;2022-07-23T11:10:54;100834.78;;;25.98;57.95
7168;BME280;3625;51.762;14.320;2022-07-23T11:13:51;100825.53;;;26.34;57.37
7168;BME280;3625;51.762;14.320;2022-07-23T11:16:24;100794.44;;;26.15;57.32
7168;BME280;3625;51.762;14.320;2022-07-23T11:19:03;100792.25;;;25.87;56.94
7168;BME280;3625;51.762;14.320;2022-07-23T11:21:47;100841.69;;;25.90;58.60
7168;BME280;3625;51.762;14.320;2022-07-23T11:24:22;100828.84;;;25.81;59.65
7168;BME280;3625;51.762;14.320;2022-07-23T11:27:04;100832.06;;;26.09;59.33
7168;BME280;3625;51.762;14.320;2022-07-23T11:29:46;100803.94;;;26.32;58.34
7168;BME280;3625;51.762;14.320;2022-07-23T11:32:28;100830.66;;;26.48;57.17
7168;BME280;3625;51.762;14.320;2022-07-23T11:35:00;100791.97;;;26.23;57.19
7168;BME280;3625;51.762;14.320;2022-07-23T11:37:36;100817.38;;;26.34;58.15
7168;BME280;3625;51.762;14.320;2022-07-23T11:40:11;100803.94;;;26.75;55.23
7168;BME280;3625;51.762;14.320;2022-07-23T11:42:55;100823.28;;;26.93;54.00
7168;BME280;3625;51.762;14.320;2022-07-23T11:45:30;100828.25;;;26.11;57.40
7168;BME280;3625;51.762;14.320;2022-07-23T11:48:00;100819.75;;;26.27;57.04
7168;BME280;3625;51.762;14.320;2022-07-23T11:50:31;100808.63;;;26.08;56.55
7168;BME280;3625;51.762;14.320;2022-07-23T11:52:59;100829.47;;;25.96;57.35
7168;BME280;3625;51.762;14.320;2022-07-23T11:55:29;100832.78;;;25.77;58.40
7168;BME280;3625;51.762;14.320;2022-07-23T11:57:58;100844.81;;;25.51;58.86
7168;BME280;3625;51.762;14.320;2022-07-23T12:00:29;100851.53;;;25.34;59.61
7168;BME280;3625;51.762;14.320;2022-07-23T12:03:05;100848.28;;;25.18;60.55
7168;BME280;3625;51.762;14.320;2022-07-23T12:05:39;100838.19;;;25.20;60.75
7168;BME280;3625;51.762;14.320;2022-07-23T12:08:09;100810.34;;;25.18;60.22
7168;BME280;3625;51.762;14.320;2022-07-23T12:10:41;100842.41;;;25.35;60.51
7168;BME280;3625;51.762;14.320;2022-07-23T12:13:14;100779.09;;;25.14;59.71
7168;BME280;3625;51.762;14.320;2022-07-23T12:15:46;100843.53;;;25.68;59.16
7168;BME280;3625;51.762;14.320;2022-07-23T12:18:18;100852.88;;;25.64;58.85
7168;BME280;3625;51.762;14.320;2022-07-23T12:20:55;100842.03;;;25.75;59.10
7168;BME280;3625;51.762;14.320;2022-07-23T12:23:26;100851.81;;;26.33;57.59
7168;BME280;3625;51.762;14.320;2022-07-23T12:25:55;100843.47;;;26.68;55.63
7168;BME280;3625;51.762;14.320;2022-07-23T12:28:31;100837.38;;;26.76;53.80
7168;BME280;3625;51.762;14.320;2022-07-23T12:31:01;100843.97;;;26.62;54.34
7168;BME280;3625;51.762;14.320;2022-07-23T12:33:33;100841.06;;;26.43;54.86
7168;BME280;3625;51.762;14.320;2022-07-23T12:36:06;100837.75;;;26.28;55.18
7168;BME280;3625;51.762;14.320;2022-07-23T12:38:40;100838.22;;;26.00;57.07
7168;BME280;3625;51.762;14.320;2022-07-23T12:41:09;100817.66;;;25.75;58.41
7168;BME280;3625;51.762;14.320;2022-07-23T12:43:41;100812.38;;;25.38;58.59
7168;BME280;3625;51.762;14.320;2022-07-23T12:46:14;100796.81;;;25.07;59.79
7168;BME280;3625;51.762;14.320;2022-07-23T12:48:52;100837.66;;;25.04;60.54
7168;BME280;3625;51.762;14.320;2022-07-23T12:51:25;100843.06;;;25.04;60.69
7168;BME280;3625;51.762;14.320;2022-07-23T12:53:57;100839.88;;;24.86;61.55
7168;BME280;3625;51.762;14.320;2022-07-23T12:56:31;100832.38;;;24.66;62.15
7168;BME280;3625;51.762;14.320;2022-07-23T12:59:07;100781.25;;;24.14;62.87
7168;BME280;3625;51.762;14.320;2022-07-23T13:01:40;100812.44;;;24.56;61.71
7168;BME280;3625;51.762;14.320;2022-07-23T13:04:14;100848.69;;;25.01;60.85
7168;BME280;3625;51.762;14.320;2022-07-23T13:06:47;100847.81;;;25.24;58.84
7168;BME280;3625;51.762;14.320;2022-07-23T13:09:19;100842.84;;;25.07;59.36
7168;BME280;3625;51.762;14.320;2022-07-23T13:11:50;100848.44;;;25.28;58.25
7168;BME280;3625;51.762;14.320;2022-07-23T13:14:20;100828.03;;;25.46;57.08
7168;BME280;3625;51.762;14.320;2022-07-23T13:16:50;100832.63;;;25.56;56.58
7168;BME280;3625;51.762;14.320;2022-07-23T13:19:20;100808.03;;;25.60;56.26
7168;BME280;3625;51.762;14.320;2022-07-23T13:21:53;100857.59;;;26.17;55.24